Time;durP1;ratioP1;P1;durP2;ratioP2;P2;SDS_P1;SDS_P2;PMS_P1;PMS_P2;Temp;Humidity;BMP_temperature;BMP_pressure;BME280_temperature;BME280_humidity;BME280_pressure;Samples;Min_cycle;Max_cycle;Signal;HPM_P1;HPM_P2
2022/09/21 00:02:02;;;;;;;103.63;34.53;;;;;;;8.53;78.90;99564.69;6216432;23;20033;-90
2022/09/21 00:04:28;;;;;;;81.43;29.95;;;;;;;8.87;79.67;99595.28;6215065;23;20018;-89
2022/09/21 00:06:55;;;;;;;99.75;29.88;;;;;;;9.03;79.33;99595.03;6189875;23;20079;-90
2022/09/21 00:09:26;;;;;;;90.57;29.40;;;;;;;9.13;78.38;99597.63;6167139;23;20043;-91
2022/09/21 00:11:53;;;;;;;96.93;29.98;;;;;;;9.11;77.92;99591.66;6218295;23;20016;-89
2022/09/21 00:14:19;;;;;;;92.50;31.08;;;;;;;9.09;77.36;99586.50;6234571;23;20023;-86
2022/09/21 00:16:47;;;;;;;77.80;28.55;;;;;;;8.99;76.45;99569.47;6173162;23;20024;-90
2022/09/21 00:19:15;;;;;;;83.95;28.95;;;;;;;9.15;76.12;99598.13;6216428;23;20545;-86
2022/09/21 00:21:41;;;;;;;76.85;28.73;;;;;;;9.12;76.00;99596.81;6189814;23;20036;-91
2022/09/21 00:24:07;;;;;;;80.95;29.85;;;;;;;8.97;76.22;99569.75;6216147;23;20026;-90
2022/09/21 00:26:33;;;;;;;67.38;27.23;;;;;;;9.22;76.70;99598.56;6215882;23;20023;-88
2022/09/21 00:29:02;;;;;;;80.75;26.77;;;;;;;9.02;77.17;99571.63;6216102;23;20013;-91
2022/09/21 00:31:30;;;;;;;69.65;27.73;;;;;;;9.24;76.93;99601.81;6216021;23;20090;-87
2022/09/21 00:41:07;;;;;;;85.15;28.02;;;;;;;8.90;74.79;99580.22;6095703;23;20018;-89
2022/09/21 00:44:23;;;;;;;89.90;31.00;;;;;;;8.94;74.26;99603.91;6070638;23;20109;-88
2022/09/21 00:46:50;;;;;;;;;;;;;;;8.84;75.96;99603.22;6070621;23;20029;-90
2022/09/21 00:49:17;;;;;;;83.35;27.67;;;;;;;8.66;76.88;99583.03;6094905;23;19969;-90
2022/09/21 00:51:45;;;;;;;72.57;28.48;;;;;;;8.86;76.66;99601.81;6074050;23;20025;-90
2022/09/21 00:54:17;;;;;;;86.05;29.88;;;;;;;8.87;76.36;99595.28;6109803;23;20025;-90
2022/09/21 00:56:43;;;;;;;79.00;28.42;;;;;;;8.74;77.13;99589.72;6110267;23;20041;-89
2022/09/21 00:59:12;;;;;;;74.13;27.58;;;;;;;8.84;77.31;99606.78;6074011;23;20022;-90
2022/09/21 01:01:39;;;;;;;77.65;28.17;;;;;;;8.84;76.71;99597.75;6046324;23;20018;-86
2022/09/21 01:04:05;;;;;;;80.25;28.00;;;;;;;8.52;75.96;99550.25;6094293;23;20014;-91
2022/09/21 01:06:34;;;;;;;90.35;28.10;;;;;;;8.73;76.17;99596.31;6069860;23;20029;-89
2022/09/21 01:09:00;;;;;;;85.82;28.60;;;;;;;8.78;76.24;99594.31;6070008;23;20022;-90
2022/09/21 01:12:01;;;;;;;94.03;30.08;;;;;;;8.72;76.06;99592.78;6046168;23;20025;-91
2022/09/21 01:14:52;;;;;;;78.68;29.27;;;;;;;8.47;75.33;99566.66;6186461;23;20100;-89
2022/09/21 01:17:36;;;;;;;81.35;29.98;;;;;;;8.64;75.63;99596.13;6163585;23;20047;-90
2022/09/21 01:20:15;;;;;;;81.20;30.25;;;;;;;8.70;75.41;99600.41;6139889;23;20024;-87
2022/09/21 01:23:18;;;;;;;103.75;29.67;;;;;;;8.69;75.33;99590.63;6164181;23;20451;-91
2022/09/21 01:26:15;;;;;;;92.88;30.08;;;;;;;8.54;75.09;99580.72;6163467;23;20512;-85
2022/09/21 01:29:08;;;;;;;102.63;30.08;;;;;;;8.60;75.72;99586.94;6163938;23;20023;-90
2022/09/21 01:31:43;;;;;;;83.28;30.25;;;;;;;8.62;75.92;99593.72;6215278;23;20028;-91
2022/09/21 01:34:25;;;;;;;92.38;29.20;;;;;;;8.46;76.13;99565.03;6188407;23;20021;-90
2022/09/21 01:36:56;;;;;;;81.82;26.60;;;;;;;8.46;75.35;99560.41;6188935;23;20031;-86
2022/09/21 01:39:23;;;;;;;83.75;29.00;;;;;;;8.48;74.85;99590.09;6163798;23;20016;-89
2022/09/21 01:41:51;;;;;;;97.75;30.80;;;;;;;8.34;75.45;99595.38;6188595;23;20551;-90
2022/09/21 01:44:22;;;;;;;98.90;31.05;;;;;;;8.15;76.02;99570.03;6139304;23;20017;-91
2022/09/21 01:46:49;;;;;;;70.65;27.40;;;;;;;8.33;76.54;99598.41;6214810;23;20024;-91
2022/09/21 01:49:30;;;;;;;83.60;29.75;;;;;;;8.35;76.19;99597.03;6188790;23;20031;-90
2022/09/21 01:53:14;;;;;;;81.18;28.27;;;;;;;8.41;76.92;99600.50;6194312;23;20521;-86
2022/09/21 01:56:09;;;;;;;74.53;25.35;;;;;;;8.10;76.09;99540.94;6214513;23;20528;-86
2022/09/21 01:58:42;;;;;;;76.38;25.42;;;;;;;8.49;76.40;99597.16;6171291;23;20021;-90
2022/09/21 02:01:11;;;;;;;77.40;27.38;;;;;;;8.51;75.66;99596.84;6163648;23;20021;-91
2022/09/21 02:03:40;;;;;;;75.32;29.00;;;;;;;8.50;75.84;99587.88;6188217;23;20017;-90
2022/09/21 02:09:18;;;;;;;76.80;27.20;;;;;;;8.47;76.07;99593.91;6188865;23;20032;-86
2022/09/21 02:11:48;;;;;;;86.88;27.23;;;;;;;8.10;76.15;99557.28;6188467;23;20071;-90
2022/09/21 02:14:21;;;;;;;87.13;29.05;;;;;;;8.15;76.03;99561.88;6189354;23;20016;-91
2022/09/21 02:16:59;;;;;;;74.60;27.13;;;;;;;8.47;76.37;99602.88;6214259;23;20078;-91
2022/09/21 02:19:28;;;;;;;81.95;29.23;;;;;;;8.46;76.56;99614.09;6215493;23;20517;-91
2022/09/21 02:22:09;;;;;;;85.25;29.88;;;;;;;8.33;76.69;99587.53;6189138;23;20009;-91
2022/09/21 02:24:46;;;;;;;82.93;29.58;;;;;;;8.49;76.08;99608.06;6188137;23;20016;-90
2022/09/21 02:27:38;;;;;;;82.50;31.05;;;;;;;8.53;76.05;99605.56;6162774;23;20020;-90
2022/09/21 02:30:16;;;;;;;86.50;31.15;;;;;;;8.43;76.31;99593.69;6240751;22;20023;-90
2022/09/21 02:32:50;;;;;;;100.55;31.55;;;;;;;8.43;77.07;99595.59;6244527;23;20055;-90
2022/09/21 02:35:50;;;;;;;91.60;31.52;;;;;;;8.60;76.72;99601.34;6168664;23;20020;-90
2022/09/21 02:38:30;;;;;;;94.32;30.85;;;;;;;8.73;76.50;99610.72;6244734;23;20612;-90
2022/09/21 02:41:18;;;;;;;86.53;29.40;;;;;;;8.73;76.57;99599.03;6244687;23;20019;-89
2022/09/21 02:44:07;;;;;;;93.00;30.52;;;;;;;8.64;76.84;99588.78;6168928;23;20015;-90
2022/09/21 02:46:38;;;;;;;90.85;28.85;;;;;;;8.92;76.78;99610.75;6246013;23;20046;-89
2022/09/21 02:49:09;;;;;;;83.32;30.25;;;;;;;8.95;76.63;99618.34;6169036;23;20020;-85
2022/09/21 02:51:55;;;;;;;80.38;30.02;;;;;;;8.95;76.39;99601.97;6169003;23;20070;-90
2022/09/21 02:54:26;;;;;;;78.63;29.40;;;;;;;9.07;76.60;99606.97;6193587;23;20016;-90
2022/09/21 02:56:54;;;;;;;83.25;30.77;;;;;;;9.04;76.55;99599.38;6168919;23;20477;-89
2022/09/21 02:59:22;;;;;;;95.13;31.33;;;;;;;9.10;76.42;99611.84;6167995;23;20016;-89
2022/09/21 03:01:50;;;;;;;81.28;29.02;;;;;;;9.11;76.08;99602.56;6168928;23;20020;-90
2022/09/21 03:04:16;;;;;;;81.20;29.02;;;;;;;9.16;76.15;99606.00;6217631;23;20074;-89
2022/09/21 03:06:42;;;;;;;80.78;28.95;;;;;;;9.21;76.33;99607.06;6168849;23;20085;-90
2022/09/21 03:09:09;;;;;;;82.80;29.00;;;;;;;9.25;76.91;99613.53;6168170;23;20027;-90
2022/09/21 03:11:35;;;;;;;80.10;31.53;;;;;;;9.27;76.85;99603.13;6168146;23;20016;-89
2022/09/21 03:14:05;;;;;;;89.15;34.55;;;;;;;9.33;77.12;99600.00;6244702;23;20019;-88
2022/09/21 03:16:32;;;;;;;139.38;45.00;;;;;;;9.29;77.86;99592.72;6244734;23;20020;-90
2022/09/21 03:18:58;;;;;;;150.07;45.78;;;;;;;9.38;78.69;99594.50;6239707;23;20020;-89
2022/09/21 03:21:24;;;;;;;119.88;41.42;;;;;;;9.44;78.81;99595.22;6244892;23;20074;-89
2022/09/21 03:23:50;;;;;;;114.70;41.15;;;;;;;9.40;78.42;99583.25;6217714;23;20012;-87
2022/09/21 03:26:21;;;;;;;114.75;41.15;;;;;;;9.31;77.93;99576.88;6192669;23;20029;-90
2022/09/21 03:28:48;;;;;;;107.35;39.38;;;;;;;9.40;77.90;99599.63;6167881;23;20557;-90
2022/09/21 03:31:16;;;;;;;112.15;38.53;;;;;;;9.30;77.50;99591.63;6168365;23;20531;-86
2022/09/21 03:33:42;;;;;;;;;;;;;;;9.41;77.75;99604.81;6245588;23;20336;-89
2022/09/21 03:36:08;;;;;;;106.83;37.40;;;;;;;9.41;77.53;99599.34;6244909;23;19923;-90
2022/09/21 03:38:36;;;;;;;100.68;38.05;;;;;;;9.27;77.66;99568.50;6218786;23;20020;-89
2022/09/21 03:41:03;;;;;;;106.90;37.05;;;;;;;9.40;77.31;99581.38;6217899;23;20020;-91
2022/09/21 03:43:30;;;;;;;109.90;38.67;;;;;;;9.53;77.25;99601.59;6244628;23;20016;-85
2022/09/21 03:45:57;;;;;;;122.22;41.05;;;;;;;9.58;77.49;99595.25;6167984;23;20342;-86
2022/09/21 03:48:23;;;;;;;105.15;43.40;;;;;;;9.60;77.58;99596.59;6245439;23;20052;-85
2022/09/21 03:50:49;;;;;;;117.67;42.60;;;;;;;9.54;78.09;99566.94;6219710;23;20016;-90
2022/09/21 03:53:16;;;;;;;136.18;47.63;;;;;;;9.78;78.52;99586.69;6219511;23;20454;-91
2022/09/21 03:55:42;;;;;;;113.43;39.37;;;;;;;9.84;79.40;99582.78;6220213;23;20027;-90
2022/09/21 03:58:09;;;;;;;88.68;33.97;;;;;;;9.94;79.90;99587.25;6170477;23;20016;-85
2022/09/21 04:00:36;;;;;;;116.18;44.50;;;;;;;9.98;79.77;99593.72;6246532;23;20091;-86
2022/09/21 04:03:05;;;;;;;101.45;38.53;;;;;;;10.17;79.98;99601.03;6245700;23;20050;-88
2022/09/21 04:05:37;;;;;;;109.10;39.88;;;;;;;10.29;79.80;99602.13;6193806;23;20103;-91
2022/09/21 04:20:55;;;;;;;135.35;60.15;;;;;;;10.62;78.31;99603.94;6245563;22;20028;-89
2022/09/21 04:23:21;;;;;;;200.73;75.03;;;;;;;10.45;78.25;99569.84;6218333;23;20020;-86
2022/09/21 04:30:04;;;;;;;135.45;51.08;;;;;;;10.68;77.12;99589.84;6261085;23;20027;-89
2022/09/21 04:33:04;;;;;;;154.80;55.92;;;;;;;10.79;77.86;99591.28;6247710;23;20020;-89
2022/09/21 04:35:30;;;;;;;111.80;41.47;;;;;;;10.29;77.54;99522.09;6245737;23;20032;-89
2022/09/21 04:37:56;;;;;;;126.50;40.85;;;;;;;10.85;77.43;99591.94;6245075;23;20066;-88
2022/09/21 04:40:22;;;;;;;115.72;40.42;;;;;;;10.96;77.82;99593.34;6244576;23;20027;-89
2022/09/21 04:42:52;;;;;;;89.20;35.88;;;;;;;11.15;77.47;99603.31;6245299;23;20152;-87
2022/09/21 04:45:20;;;;;;;114.43;35.05;;;;;;;11.23;77.42;99599.84;6245699;23;20020;-89
2022/09/21 04:47:47;;;;;;;117.07;34.35;;;;;;;11.44;76.75;99605.63;6246913;23;20023;-88
2022/09/21 04:50:14;;;;;;;117.13;36.05;;;;;;;11.53;76.87;99615.50;6246677;23;20026;-89
2022/09/21 04:52:40;;;;;;;124.00;36.60;;;;;;;11.62;76.30;99601.88;6245668;23;20016;-90
2022/09/21 04:55:07;;;;;;;124.40;36.55;;;;;;;11.70;76.52;99603.84;6246165;23;20020;-87
2022/09/21 04:57:34;;;;;;;111.40;37.42;;;;;;;11.83;75.30;99609.56;6246580;23;20039;-89
2022/09/21 05:00:02;;;;;;;101.97;36.30;;;;;;;11.77;76.00;99597.94;6245747;23;20095;-88
2022/09/21 05:02:29;;;;;;;104.03;35.60;;;;;;;11.89;75.37;99614.63;6246789;23;20104;-88
2022/09/21 05:04:55;;;;;;;104.70;35.25;;;;;;;11.90;74.49;99615.44;6248590;23;20023;-89
2022/09/21 05:07:21;;;;;;;99.28;36.70;;;;;;;11.86;74.49;99606.25;6264378;23;20016;-88
2022/09/21 05:10:02;;;;;;;102.68;36.42;;;;;;;11.99;74.60;99614.38;6264724;23;20026;-82
2022/09/21 05:12:33;;;;;;;103.65;35.88;;;;;;;11.98;74.65;99614.66;6249709;23;20038;-90
2022/09/21 05:17:28;;;;;;;102.10;33.53;;;;;;;11.79;74.38;99595.69;6249199;23;20392;-89
2022/09/21 05:19:54;;;;;;;99.87;34.93;;;;;;;12.04;75.17;99620.81;6248741;23;20028;-86
2022/09/21 05:24:48;;;;;;;88.10;33.25;;;;;;;12.08;74.71;99606.16;6271878;23;20023;-87
2022/09/21 05:29:45;;;;;;;93.28;34.28;;;;;;;12.20;74.45;99611.88;6256057;23;20064;-89
2022/09/21 05:32:20;;;;;;;103.20;34.92;;;;;;;12.26;74.25;99611.75;6253329;23;20036;-87
2022/09/21 05:34:56;;;;;;;105.53;36.25;;;;;;;12.27;74.45;99610.59;6254348;23;20023;-88
2022/09/21 05:37:42;;;;;;;101.07;36.55;;;;;;;12.42;73.73;99601.97;6222978;23;20019;-88
2022/09/21 05:40:11;;;;;;;144.13;40.08;;;;;;;12.56;73.50;99607.31;6245920;23;20334;-89
2022/09/21 05:42:37;;;;;;;143.02;35.53;;;;;;;12.57;72.45;99590.53;6218571;23;20115;-82
2022/09/21 05:45:04;;;;;;;112.43;35.95;;;;;;;12.60;72.94;99575.38;6218056;23;20435;-81
2022/09/21 05:47:54;;;;;;;107.47;32.38;;;;;;;12.76;71.63;99587.50;6244471;23;20107;-87
2022/09/21 05:51:00;;;;;;;83.78;29.30;;;;;;;12.88;71.71;99586.84;6245975;23;20479;-88
2022/09/21 05:53:48;;;;;;;;;;;;;;;12.91;71.25;99594.44;6125891;23;20031;-90
2022/09/21 05:56:32;;;;;;;90.20;26.48;;;;;;;12.98;71.17;99597.56;6246823;23;19923;-89
2022/09/21 05:59:26;;;;;;;102.63;28.42;;;;;;;13.11;71.82;99610.31;6194101;23;20024;-90
2022/09/21 06:02:04;;;;;;;71.32;27.88;;;;;;;13.11;71.43;99602.06;6245341;23;20023;-89
2022/09/21 06:04:31;;;;;;;100.85;27.55;;;;;;;13.13;71.91;99596.25;6245421;23;20465;-91
2022/09/21 06:06:57;;;;;;;103.05;28.02;;;;;;;13.20;71.38;99610.28;6245522;23;20043;-89
2022/09/21 06:09:24;;;;;;;69.15;24.50;;;;;;;13.18;71.34;99604.34;6246233;23;20012;-90
2022/09/21 06:11:51;;;;;;;61.53;25.50;;;;;;;13.10;71.55;99594.94;6218232;23;20023;-89
2022/09/21 06:32:28;;;;;;;;;;;;;;;;;;;;;
2022/09/21 06:48:07;;;;;;;84.70;33.08;;;;;;;13.05;71.83;99575.09;6064280;23;20029;-88
2022/09/21 06:58:14;;;;;;;77.43;29.17;;;;;;;13.56;71.64;99625.66;6122690;22;20047;-89
2022/09/21 07:00:43;;;;;;;70.47;26.95;;;;;;;13.48;71.93;99602.56;6244349;23;20024;-88
2022/09/21 07:03:14;;;;;;;69.70;23.33;;;;;;;13.62;71.01;99622.41;6220734;23;20016;-93
2022/09/21 07:05:45;;;;;;;58.75;26.00;;;;;;;13.63;70.83;99614.97;6243868;23;20103;-91
2022/09/21 07:08:11;;;;;;;66.68;25.33;;;;;;;13.75;69.87;99626.09;6194984;23;20111;-93
2022/09/21 07:10:37;;;;;;;52.42;22.73;;;;;;;13.69;70.29;99605.44;6195917;23;20026;-88
2022/09/21 07:13:04;;;;;;;53.45;20.95;;;;;;;13.90;70.42;99618.47;6248904;23;20049;-92
2022/09/21 07:15:38;;;;;;;95.88;30.10;;;;;;;13.98;70.63;99617.66;6197300;23;20024;-88
2022/09/21 07:18:13;;;;;;;62.97;24.45;;;;;;;13.84;69.30;99591.19;6198095;23;20016;-95
2022/09/21 07:20:40;;;;;;;81.93;26.45;;;;;;;13.92;69.70;99608.75;6255443;23;20036;-88
2022/09/21 07:23:38;;;;;;;82.82;27.60;;;;;;;13.66;69.20;99553.88;6251774;23;20035;-88
2022/09/21 07:26:13;;;;;;;93.45;25.10;;;;;;;14.03;70.25;99610.00;6270895;23;20099;-89
2022/09/21 07:28:39;;;;;;;79.03;22.83;;;;;;;13.93;69.56;99585.63;6246327;23;20020;-87
2022/09/21 07:31:08;;;;;;;46.42;16.95;;;;;;;14.06;69.60;99616.81;6244519;23;20067;-89
2022/09/21 07:36:08;;;;;;;43.38;18.85;;;;;;;14.21;69.73;99626.47;6259662;22;20054;-89
2022/09/21 07:38:40;;;;;;;46.78;18.13;;;;;;;14.14;69.58;99591.22;6252795;23;20083;-86
2022/09/21 07:41:11;;;;;;;42.17;15.80;;;;;;;14.29;68.49;99612.66;6252574;23;20442;-91
2022/09/21 07:43:39;;;;;;;34.28;16.08;;;;;;;14.00;68.50;99549.41;6252474;23;20027;-93
2022/09/21 07:48:46;;;;;;;43.22;14.07;;;;;;;14.19;68.00;99580.03;6250438;22;20089;-88
2022/09/21 07:51:15;;;;;;;31.42;12.98;;;;;;;14.38;67.58;99598.06;6221949;23;20044;-89
2022/09/21 07:53:52;;;;;;;39.00;12.25;;;;;;;14.23;67.08;99569.97;6223220;23;20016;-88
2022/09/21 07:59:04;;;;;;;;;;;;;;;14.74;67.30;99627.84;6224168;23;20035;-88
2022/09/21 07:59:31;;;;;;;34.70;13.05;;;;;;;14.67;66.72;99617.38;6223785;23;19920;-89
2022/09/21 08:01:58;;;;;;;43.83;14.05;;;;;;;14.68;66.69;99623.66;6221031;23;20023;-88
2022/09/21 08:04:34;;;;;;;48.95;14.55;;;;;;;14.30;67.60;99550.22;6198883;23;20016;-95
2022/09/21 08:07:00;;;;;;;43.33;13.05;;;;;;;14.71;66.95;99618.31;6246479;23;20013;-95
2022/09/21 08:09:36;;;;;;;26.63;12.10;;;;;;;14.76;66.61;99612.59;6247501;23;20016;-89
2022/09/21 08:12:02;;;;;;;32.70;12.93;;;;;;;14.39;67.11;99553.72;6249873;23;20016;-90
2022/09/21 08:14:42;;;;;;;43.97;13.37;;;;;;;14.95;66.16;99619.59;6227366;23;20035;-91
2022/09/21 08:17:09;;;;;;;34.95;14.27;;;;;;;14.86;66.67;99594.88;6250622;23;20031;-89
2022/09/21 08:19:38;;;;;;;36.13;13.68;;;;;;;15.10;66.39;99627.28;6223796;23;20016;-89
2022/09/21 08:22:07;;;;;;;30.45;13.45;;;;;;;14.91;64.39;99585.63;6235263;23;20016;-88
2022/09/21 08:24:34;;;;;;;36.70;15.27;;;;;;;15.07;64.79;99599.63;6223535;23;20012;-87
2022/09/21 08:27:01;;;;;;;46.08;15.32;;;;;;;15.19;65.23;99610.69;6248158;22;20024;-88
2022/09/21 08:29:27;;;;;;;;;;;;;;;15.13;65.10;99612.00;6247448;23;20495;-89
2022/09/21 08:32:03;;;;;;;47.95;15.50;;;;;;;15.18;65.50;99607.13;6246474;23;19915;-88
2022/09/21 08:34:35;;;;;;;45.97;16.48;;;;;;;15.00;64.98;99575.38;6251354;23;20031;-88
2022/09/21 08:37:26;;;;;;;57.08;19.55;;;;;;;15.25;63.90;99596.38;6249851;22;20082;-90
2022/09/21 08:39:55;;;;;;;75.63;17.60;;;;;;;15.08;64.95;99576.44;6197394;23;20027;-88
2022/09/21 08:42:30;;;;;;;34.03;13.73;;;;;;;15.14;64.62;99591.63;6224624;23;20039;-93
2022/09/21 08:45:03;;;;;;;40.35;15.88;;;;;;;14.99;64.78;99554.47;6253593;23;20047;-89
2022/09/21 08:47:59;;;;;;;40.95;15.27;;;;;;;15.30;64.62;99578.00;6199956;23;20047;-88
2022/09/21 08:50:32;;;;;;;51.88;16.98;;;;;;;15.30;64.22;99589.03;6202290;23;20047;-91
2022/09/21 08:53:25;;;;;;;50.28;16.45;;;;;;;15.44;64.97;99587.63;6253870;23;20044;-88
2022/09/21 08:55:57;;;;;;;52.42;17.60;;;;;;;14.92;63.06;99499.16;6256997;22;20357;-89
2022/09/21 08:58:28;;;;;;;89.32;18.98;;;;;;;15.26;64.37;99553.94;6221742;23;20024;-89
2022/09/21 09:01:30;;;;;;;59.35;16.77;;;;;;;15.44;63.68;99573.84;6225637;22;20027;-88
2022/09/21 09:04:15;;;;;;;71.15;18.73;;;;;;;15.50;64.58;99572.47;6227915;22;20471;-89
2022/09/21 09:07:00;;;;;;;43.00;15.73;;;;;;;15.03;62.89;99498.41;6228438;22;20016;-89
2022/09/21 09:09:50;;;;;;;50.65;16.85;;;;;;;15.28;62.90;99545.31;6203100;22;20016;-88
2022/09/21 09:12:41;;;;;;;38.95;16.10;;;;;;;15.44;63.65;99565.56;6229738;22;20039;-89
2022/09/21 09:15:49;;;;;;;53.15;15.68;;;;;;;15.46;63.18;99551.44;6230990;22;20020;-88
2022/09/21 09:18:48;;;;;;;58.10;17.58;;;;;;;15.63;62.83;99567.81;6256847;22;20449;-88
2022/09/21 09:21:28;;;;;;;40.00;15.23;;;;;;;15.80;62.26;99564.09;6202551;22;20065;-89
2022/09/21 09:24:03;;;;;;;55.00;18.98;;;;;;;15.77;62.54;99553.75;6230842;22;20016;-95
2022/09/21 09:26:32;;;;;;;45.88;15.55;;;;;;;15.94;62.19;99553.53;6204069;22;20020;-88
2022/09/21 09:29:01;;;;;;;64.10;18.65;;;;;;;16.09;61.72;99556.75;6204420;22;20015;-85
2022/09/21 09:31:36;;;;;;;43.28;13.00;;;;;;;16.14;61.65;99523.44;6250273;22;20015;-85
2022/09/21 09:34:21;;;;;;;50.80;16.50;;;;;;;16.17;59.79;99545.63;6275944;22;20366;-85
2022/09/21 09:36:53;;;;;;;46.78;14.38;;;;;;;16.30;59.24;99553.91;6279014;22;20043;-86
2022/09/21 09:39:20;;;;;;;32.83;10.90;;;;;;;16.05;58.17;99522.75;6226485;22;20016;-86
2022/09/21 09:42:05;;;;;;;36.58;10.05;;;;;;;16.26;58.32;99547.44;6277230;22;20015;-93
2022/09/21 09:45:08;;;;;;;37.97;10.82;;;;;;;16.28;59.12;99545.16;6277143;22;20015;-86
2022/09/21 09:48:02;;;;;;;27.35;8.00;;;;;;;16.34;57.40;99544.59;6249951;22;20054;-85
2022/09/21 09:53:04;;;;;;;42.80;7.00;;;;;;;16.15;57.63;99541.59;6277553;22;20095;-86
2022/09/21 09:56:09;;;;;;;14.07;6.90;;;;;;;16.21;57.57;99552.06;6277529;22;20046;-88
2022/09/21 09:58:56;;;;;;;24.00;7.60;;;;;;;16.11;58.59;99552.53;6123843;23;20096;-87
2022/09/21 10:01:42;;;;;;;22.30;8.40;;;;;;;16.16;58.70;99563.34;6101424;23;20490;-87
2022/09/21 10:04:11;;;;;;;38.38;9.45;;;;;;;16.17;58.25;99548.38;6052013;23;20021;-86
2022/09/21 10:06:38;;;;;;;20.75;8.55;;;;;;;16.00;57.97;99523.00;6124235;23;20017;-93
2022/09/21 10:09:30;;;;;;;38.08;8.00;;;;;;;16.06;57.93;99533.47;6125923;23;20025;-94
2022/09/21 10:12:01;;;;;;;26.20;8.38;;;;;;;16.05;59.17;99518.03;6129330;23;20475;-91
2022/09/21 10:14:33;;;;;;;26.63;8.20;;;;;;;16.27;58.75;99547.13;6131447;23;20018;-90
2022/09/21 10:17:07;;;;;;;26.35;8.75;;;;;;;16.18;57.81;99530.69;6129894;23;20029;-94
2022/09/21 10:19:33;;;;;;;29.48;8.00;;;;;;;16.28;58.47;99539.66;6104494;23;20018;-94
2022/09/21 10:22:04;;;;;;;31.20;8.38;;;;;;;16.19;57.16;99517.69;6106481;23;20022;-91
2022/09/21 10:24:33;;;;;;;32.88;8.38;;;;;;;16.35;57.60;99528.84;6102412;23;19997;-89
2022/09/21 10:27:41;;;;;;;24.55;8.52;;;;;;;16.23;56.40;99509.56;6128232;23;20121;-84
2022/09/21 10:30:30;;;;;;;23.65;8.35;;;;;;;16.45;56.20;99536.63;6124910;23;20022;-87
2022/09/21 10:32:58;;;;;;;25.25;9.68;;;;;;;16.51;57.36;99540.78;6206685;23;20050;-92
2022/09/21 10:35:25;;;;;;;14.23;7.63;;;;;;;16.29;55.78;99508.16;6218905;23;20016;-86
2022/09/21 10:38:16;;;;;;;19.52;8.55;;;;;;;16.17;56.62;99501.50;6245654;23;20015;-92
2022/09/21 10:40:44;;;;;;;19.83;8.10;;;;;;;16.21;56.85;99520.91;6246640;23;20028;-86
2022/09/21 10:43:27;;;;;;;40.40;9.13;;;;;;;16.19;57.24;99509.41;6195747;23;20016;-87
2022/09/21 10:45:57;;;;;;;19.27;8.40;;;;;;;16.31;56.93;99517.69;6221881;23;20073;-86
2022/09/21 10:48:26;;;;;;;23.58;7.18;;;;;;;16.34;55.89;99532.75;6247125;23;20077;-87
2022/09/21 10:50:54;;;;;;;15.70;7.60;;;;;;;16.30;56.06;99518.03;6220166;23;20040;-90
2022/09/21 10:53:29;;;;;;;28.65;7.40;;;;;;;16.32;56.46;99527.56;6248020;23;20024;-91
2022/09/21 10:56:02;;;;;;;31.25;7.93;;;;;;;16.38;57.00;99523.41;6221767;23;20019;-86
2022/09/21 10:58:30;;;;;;;20.40;7.85;;;;;;;16.46;56.75;99530.00;6249941;23;20016;-94
2022/09/21 11:01:30;;;;;;;26.23;8.20;;;;;;;16.31;57.00;99505.84;6251171;22;20024;-87
2022/09/21 11:04:04;;;;;;;26.10;8.15;;;;;;;16.39;56.39;99515.94;6280196;22;20015;-94
2022/09/21 11:09:11;;;;;;;110.13;15.38;;;;;;;16.34;57.78;99516.19;6280456;22;20016;-88
2022/09/21 11:11:58;;;;;;;26.48;7.95;;;;;;;16.29;56.37;99514.50;6280592;22;20023;-94
2022/09/21 11:14:48;;;;;;;19.25;7.00;;;;;;;16.16;56.40;99524.72;6280891;22;20019;-85
2022/09/21 11:20:19;;;;;;;40.45;9.95;;;;;;;16.11;57.43;99515.88;6280379;22;20093;-85
2022/09/21 11:23:19;;;;;;;24.75;9.25;;;;;;;15.96;57.85;99501.63;6228568;22;20142;-88
2022/09/21 11:25:56;;;;;;;95.95;24.88;;;;;;;16.01;58.17;99508.06;6280123;22;20043;-85
2022/09/21 11:28:30;;;;;;;63.22;16.48;;;;;;;15.90;59.04;99493.94;6253444;22;20019;-89
2022/09/21 11:31:21;;;;;;;62.92;12.15;;;;;;;16.05;58.26;99508.97;6252951;22;20449;-88
2022/09/21 11:34:30;;;;;;;41.50;10.00;;;;;;;16.11;57.48;99518.63;6278400;22;20063;-93
2022/09/21 11:37:11;;;;;;;29.35;9.55;;;;;;;16.13;58.52;99511.63;6203313;22;20068;-87
2022/09/21 11:39:58;;;;;;;36.83;10.75;;;;;;;16.04;58.77;99502.66;6253421;22;20020;-94
2022/09/21 11:42:52;;;;;;;38.92;11.45;;;;;;;16.10;57.36;99506.00;6253029;22;20102;-91
2022/09/21 11:45:45;;;;;;;41.67;12.98;;;;;;;16.05;58.59;99507.00;6280782;22;20446;-90
2022/09/21 11:48:25;;;;;;;49.08;13.82;;;;;;;16.09;58.06;99501.59;6229820;22;20042;-92
2022/09/21 11:51:37;;;;;;;42.30;12.35;;;;;;;16.03;57.95;99512.09;6254825;22;20480;-89
2022/09/21 11:54:26;;;;;;;26.00;10.20;;;;;;;16.01;57.83;99514.38;6213487;22;20353;-91
2022/09/21 11:57:00;;;;;;;94.97;18.23;;;;;;;15.75;59.02;99465.06;6251662;22;20031;-88
2022/09/21 12:00:14;;;;;;;26.92;9.27;;;;;;;15.92;58.60;99494.38;6226725;22;20022;-94
2022/09/21 12:03:02;;;;;;;110.28;12.82;;;;;;;15.98;59.46;99504.03;6185276;23;20017;-92
2022/09/21 12:05:44;;;;;;;53.72;11.18;;;;;;;15.92;58.47;99500.69;6221557;23;20016;-94
2022/09/21 12:08:24;;;;;;;97.65;18.65;;;;;;;15.91;59.56;99492.78;6247706;23;20015;-86
2022/09/21 12:11:18;;;;;;;82.72;14.25;;;;;;;15.92;59.38;99497.13;6224610;23;20023;-87
2022/09/21 12:14:10;;;;;;;43.38;10.10;;;;;;;15.89;58.46;99500.56;6197313;23;20023;-93
2022/09/21 12:16:54;;;;;;;58.42;10.10;;;;;;;15.74;59.31;99500.09;6221802;23;20063;-87
2022/09/21 12:19:44;;;;;;;29.30;7.85;;;;;;;15.71;59.21;99489.78;6221536;23;20046;-91
2022/09/21 12:22:21;;;;;;;36.95;9.07;;;;;;;15.67;58.93;99497.13;6247677;23;20063;-86
2022/09/21 12:24:50;;;;;;;39.15;9.50;;;;;;;15.50;59.87;99462.28;6249186;23;20023;-93
2022/09/21 12:27:33;;;;;;;53.78;11.93;;;;;;;15.63;58.89;99496.16;6223281;23;20020;-92
2022/09/21 12:30:05;;;;;;;45.70;13.38;;;;;;;15.62;58.47;99491.78;6222321;23;20012;-92
2022/09/21 12:32:49;;;;;;;159.30;27.92;;;;;;;15.58;59.95;99487.31;6247019;23;20016;-94
2022/09/21 12:35:29;;;;;;;102.65;18.27;;;;;;;15.38;60.52;99458.69;6220380;23;20499;-90
2022/09/21 12:38:06;;;;;;;118.68;18.88;;;;;;;15.48;60.62;99477.53;6220292;23;20093;-88
2022/09/21 12:40:54;;;;;;;110.15;18.77;;;;;;;15.58;61.94;99496.38;6196737;23;20360;-87
2022/09/21 12:43:41;;;;;;;66.93;14.95;;;;;;;15.44;60.98;99469.16;6221373;23;20449;-93
2022/09/21 12:46:30;;;;;;;42.88;12.13;;;;;;;15.59;60.10;99492.47;6247231;23;20024;-92
2022/09/21 12:49:00;;;;;;;58.55;15.40;;;;;;;15.34;60.95;99468.78;6221331;23;20091;-92
2022/09/21 12:54:05;;;;;;;35.15;9.25;;;;;;;15.39;60.55;99471.31;6246967;23;20408;-86
2022/09/21 12:56:50;;;;;;;46.15;9.05;;;;;;;15.53;59.99;99493.84;6220976;23;20023;-87
2022/09/21 12:59:29;;;;;;;25.27;9.10;;;;;;;15.45;59.19;99475.47;6220161;23;20051;-89
2022/09/21 13:02:20;;;;;;;68.05;13.32;;;;;;;15.55;59.70;99493.50;6227964;23;20331;-88
2022/09/21 13:04:53;;;;;;;21.33;6.72;;;;;;;15.49;59.57;99492.91;6198799;23;20074;-87
2022/09/21 13:07:57;;;;;;;42.33;7.68;;;;;;;15.55;59.78;99488.78;6225977;23;20049;-90
2022/09/21 13:10:47;;;;;;;65.22;11.80;;;;;;;15.26;59.92;99460.28;6201449;23;20020;-86
2022/09/21 13:13:32;;;;;;;25.10;6.80;;;;;;;15.08;59.29;99445.06;6260463;22;20020;-88
2022/09/21 13:18:33;;;;;;;56.53;9.35;;;;;;;15.24;60.28;99468.06;6255852;23;20528;-87
2022/09/21 13:21:15;;;;;;;56.75;12.65;;;;;;;15.12;60.41;99443.25;6255213;23;20054;-87
2022/09/21 13:24:03;;;;;;;112.22;22.77;;;;;;;15.26;60.43;99457.53;6256336;22;20000;-85
2022/09/21 13:29:21;;;;;;;153.80;26.10;;;;;;;15.44;61.24;99479.38;6253305;23;20032;-86
2022/09/21 13:32:01;;;;;;;39.53;10.02;;;;;;;15.37;60.97;99485.44;6253062;23;20157;-85
2022/09/21 13:34:44;;;;;;;53.25;10.32;;;;;;;15.24;59.88;99467.28;6196326;23;20020;-86
2022/09/21 13:37:13;;;;;;;40.58;9.20;;;;;;;15.32;61.17;99487.59;6249443;23;20047;-91
2022/09/21 13:40:01;;;;;;;44.30;9.48;;;;;;;15.30;62.39;99481.63;6197391;23;20453;-93